createdAt,value
2018-07-16T00:00:33.860Z,21.30
2018-07-16T00:03:03.012Z,21.20
2018-07-16T00:05:32.281Z,21.26
2018-07-16T00:08:01.637Z,21.36
2018-07-16T00:10:30.890Z,21.35
2018-07-16T00:13:00.267Z,21.37
2018-07-16T00:15:29.582Z,21.35
2018-07-16T00:17:58.870Z,21.31
2018-07-16T00:20:28.148Z,21.25
2018-07-16T00:22:57.419Z,21.24
2018-07-16T00:25:26.710Z,21.30
2018-07-16T00:27:55.963Z,21.23
2018-07-16T00:30:25.239Z,21.23
2018-07-16T00:32:54.496Z,21.22
2018-07-16T00:35:23.813Z,21.24
2018-07-16T00:37:53.045Z,21.24
2018-07-16T00:40:22.374Z,21.14
2018-07-16T00:42:51.694Z,21.06
2018-07-16T00:45:20.982Z,21.01
2018-07-16T00:47:50.301Z,20.92
2018-07-16T00:50:19.552Z,20.87
2018-07-16T00:52:48.813Z,20.87
2018-07-16T00:55:18.103Z,20.85
2018-07-16T00:57:47.362Z,20.72
2018-07-16T01:00:16.873Z,20.61
2018-07-16T01:02:46.248Z,20.49
2018-07-16T01:05:15.660Z,20.40
2018-07-16T01:07:45.009Z,20.35
2018-07-16T01:10:14.395Z,20.29
2018-07-16T01:12:43.489Z,20.20
2018-07-16T01:15:12.886Z,20.13
2018-07-16T01:17:42.278Z,20.09
2018-07-16T01:20:11.751Z,20.04
2018-07-16T01:22:41.172Z,19.96
2018-07-16T01:25:10.795Z,19.89
2018-07-16T01:27:40.272Z,19.82
2018-07-16T01:30:09.532Z,19.77
2018-07-16T01:32:38.939Z,19.70
2018-07-16T01:35:08.222Z,19.65
2018-07-16T01:37:37.490Z,19.58
2018-07-16T01:40:06.923Z,19.53
2018-07-16T01:42:36.257Z,19.51
2018-07-16T01:45:05.601Z,19.52
2018-07-16T01:47:34.909Z,19.58
2018-07-16T01:50:04.243Z,19.45
2018-07-16T01:52:33.536Z,19.41
2018-07-16T01:55:02.936Z,19.34
2018-07-16T01:57:32.287Z,19.25
2018-07-16T02:00:01.391Z,19.17
2018-07-16T02:02:30.819Z,19.13
2018-07-16T02:05:00.339Z,19.15
2018-07-16T02:07:29.637Z,19.17
2018-07-16T02:09:58.765Z,19.16
2018-07-16T02:12:28.272Z,19.11
2018-07-16T02:14:57.601Z,19.08
2018-07-16T02:17:26.866Z,19.05
2018-07-16T02:19:56.221Z,19.03
2018-07-16T02:22:25.490Z,19.11
2018-07-16T02:24:54.819Z,19.06
2018-07-16T02:27:24.099Z,18.99
2018-07-16T02:29:53.373Z,18.97
2018-07-16T02:32:22.623Z,19.00
2018-07-16T02:34:52.213Z,18.96
2018-07-16T02:37:21.498Z,18.92
2018-07-16T02:39:50.841Z,18.88
2018-07-16T02:42:20.159Z,18.79
2018-07-16T02:44:49.391Z,18.74
2018-07-16T02:47:18.783Z,18.72
2018-07-16T02:49:47.838Z,18.69
2018-07-16T02:52:17.213Z,18.65
2018-07-16T02:54:46.487Z,18.64
2018-07-16T02:57:15.857Z,18.62
2018-07-16T02:59:45.254Z,18.60
2018-07-16T03:02:14.302Z,18.52
2018-07-16T03:04:43.689Z,18.50
2018-07-16T03:07:13.276Z,18.44
2018-07-16T03:09:42.493Z,18.43
2018-07-16T03:12:11.885Z,18.39
2018-07-16T03:14:41.443Z,18.32
2018-07-16T03:17:10.872Z,18.28
2018-07-16T03:19:40.292Z,18.26
2018-07-16T03:22:09.560Z,18.20
2018-07-16T03:24:38.896Z,18.21
2018-07-16T03:27:08.200Z,18.19
2018-07-16T03:29:37.577Z,18.17
2018-07-16T03:32:06.903Z,18.07
2018-07-16T03:34:36.270Z,18.08
2018-07-16T03:37:05.569Z,18.01
2018-07-16T03:39:34.898Z,17.99
2018-07-16T03:42:06.425Z,18.01
2018-07-16T03:44:35.777Z,18.09
2018-07-16T03:47:05.218Z,18.12
2018-07-16T03:49:34.486Z,18.11
2018-07-16T03:52:03.527Z,18.08
2018-07-16T03:54:32.954Z,18.12
2018-07-16T03:57:02.349Z,18.12
2018-07-16T03:59:31.656Z,18.17
2018-07-16T04:02:01.060Z,18.13
2018-07-16T04:04:30.395Z,18.18
2018-07-16T04:06:59.740Z,18.22
2018-07-16T04:09:29.025Z,18.25
2018-07-16T04:11:58.361Z,18.28
2018-07-16T04:14:27.675Z,18.30
2018-07-16T04:16:56.945Z,18.34
2018-07-16T04:19:26.214Z,18.44
2018-07-16T04:21:55.469Z,18.47
2018-07-16T04:24:24.825Z,18.46
2018-07-16T04:26:54.226Z,18.57
2018-07-16T04:29:23.744Z,18.63
2018-07-16T04:31:53.021Z,18.77
2018-07-16T04:34:22.283Z,19.04
2018-07-16T04:36:51.634Z,19.34
2018-07-16T04:39:21.003Z,19.64
2018-07-16T04:41:50.257Z,19.94
2018-07-16T04:44:19.533Z,20.14
2018-07-16T04:46:48.844Z,20.25
2018-07-16T04:49:18.127Z,20.24
2018-07-16T04:51:47.516Z,20.35
2018-07-16T04:54:16.817Z,20.51
2018-07-16T04:56:46.062Z,20.52
2018-07-16T04:59:15.454Z,20.63
2018-07-16T05:01:45.039Z,20.73
2018-07-16T05:04:14.454Z,20.86
2018-07-16T05:06:43.873Z,20.89
2018-07-16T05:09:13.592Z,21.08
2018-07-16T05:11:43.001Z,21.24
2018-07-16T05:14:14.479Z,21.22
2018-07-16T05:16:43.894Z,21.48
2018-07-16T05:19:13.312Z,21.68
2018-07-16T05:21:42.656Z,21.87
2018-07-16T05:24:12.622Z,22.15
2018-07-16T05:26:42.167Z,22.39
2018-07-16T05:29:11.280Z,22.54
2018-07-16T05:31:40.903Z,22.83
2018-07-16T05:34:10.345Z,23.05
2018-07-16T05:36:39.768Z,23.19
2018-07-16T05:39:09.271Z,23.27
2018-07-16T05:41:38.617Z,23.48
2018-07-16T05:44:07.725Z,23.65
2018-07-16T05:46:37.100Z,23.70
2018-07-16T05:49:06.582Z,23.94
2018-07-16T05:51:35.837Z,24.07
2018-07-16T05:54:05.133Z,24.33
2018-07-16T05:56:34.245Z,24.41
2018-07-16T05:59:03.575Z,24.75
2018-07-16T06:01:32.853Z,24.88
2018-07-16T06:04:02.304Z,25.20
2018-07-16T06:06:31.918Z,25.43
2018-07-16T06:09:01.473Z,25.38
2018-07-16T06:11:30.841Z,25.49
2018-07-16T06:13:59.966Z,25.62
2018-07-16T06:16:29.297Z,25.81
2018-07-16T06:18:58.600Z,26.11
2018-07-16T06:21:27.854Z,26.11
2018-07-16T06:23:57.236Z,26.25
2018-07-16T06:26:26.449Z,26.40
2018-07-16T06:28:55.707Z,26.46
2018-07-16T06:31:25.068Z,26.35
2018-07-16T06:33:54.450Z,26.71
2018-07-16T06:36:23.703Z,26.98
2018-07-16T06:38:53.092Z,27.32
2018-07-16T06:41:22.692Z,27.59
2018-07-16T06:43:51.764Z,27.51
2018-07-16T06:46:21.090Z,27.37
2018-07-16T06:48:50.444Z,27.80
2018-07-16T06:51:19.815Z,28.32
2018-07-16T06:53:49.208Z,28.19
2018-07-16T06:56:18.521Z,28.20
2018-07-16T06:58:47.851Z,28.20
2018-07-16T07:01:17.649Z,28.71
2018-07-16T07:03:46.902Z,28.71
2018-07-16T07:06:16.298Z,28.99
2018-07-16T07:08:45.711Z,29.06
2018-07-16T07:11:14.981Z,29.37
2018-07-16T07:13:44.325Z,29.43
2018-07-16T07:16:13.631Z,29.38
2018-07-16T07:18:42.957Z,29.84
2018-07-16T07:21:12.529Z,29.74
2018-07-16T07:23:41.918Z,29.41
2018-07-16T07:26:11.232Z,29.87
2018-07-16T07:28:40.633Z,30.04
2018-07-16T07:31:09.977Z,30.20
2018-07-16T07:33:39.262Z,30.65
2018-07-16T07:36:08.590Z,30.84
2018-07-16T07:38:37.919Z,31.01
2018-07-16T07:41:07.842Z,30.77
2018-07-16T07:43:37.138Z,31.34
2018-07-16T07:46:06.478Z,31.49
2018-07-16T07:48:35.864Z,31.22
2018-07-16T07:51:05.195Z,30.89
2018-07-16T07:53:34.597Z,31.09
2018-07-16T07:56:03.908Z,31.26
2018-07-16T07:58:33.224Z,31.50
2018-07-16T08:01:02.750Z,31.42
2018-07-16T08:03:32.060Z,31.23
2018-07-16T08:06:06.805Z,31.71
2018-07-16T08:08:37.463Z,32.14
2018-07-16T08:11:07.176Z,32.54
2018-07-16T08:13:36.527Z,32.61
2018-07-16T08:16:05.818Z,32.57
2018-07-16T08:18:35.116Z,32.84
2018-07-16T08:21:04.440Z,33.32
2018-07-16T08:23:33.740Z,33.09
2018-07-16T08:26:03.365Z,33.49
2018-07-16T08:28:32.663Z,33.13
2018-07-16T08:31:01.953Z,33.50
2018-07-16T08:33:31.326Z,33.49
2018-07-16T08:36:00.635Z,32.68
2018-07-16T08:38:30.142Z,33.62
2018-07-16T08:40:59.556Z,33.61
2018-07-16T08:43:28.927Z,33.51
2018-07-16T08:45:58.295Z,32.84
2018-07-16T08:48:27.627Z,33.59
2018-07-16T08:50:56.931Z,33.19
2018-07-16T08:53:26.207Z,33.91
2018-07-16T08:55:56.534Z,34.14
2018-07-16T08:58:25.895Z,34.57
2018-07-16T09:00:55.206Z,34.59
2018-07-16T09:03:25.020Z,34.43
2018-07-16T09:05:59.670Z,34.22
2018-07-16T09:08:28.976Z,33.83
2018-07-16T09:10:58.306Z,34.47
2018-07-16T09:13:27.693Z,34.79
2018-07-16T09:15:56.940Z,35.34
2018-07-16T09:18:26.256Z,34.97
2018-07-16T09:20:55.503Z,35.37
2018-07-16T09:23:24.823Z,35.92
2018-07-16T09:25:54.091Z,35.52
2018-07-16T09:28:23.403Z,34.48
2018-07-16T09:30:52.643Z,34.45
2018-07-16T09:33:21.913Z,35.00
2018-07-16T09:35:51.348Z,35.19
2018-07-16T09:38:20.629Z,35.50
2018-07-16T09:40:49.916Z,35.69
2018-07-16T09:43:19.357Z,35.66
2018-07-16T09:45:48.639Z,35.77
2018-07-16T09:48:17.973Z,35.15
2018-07-16T09:50:47.338Z,35.11
2018-07-16T09:53:16.611Z,36.01
2018-07-16T09:55:45.861Z,35.80
2018-07-16T09:58:15.293Z,36.11
2018-07-16T10:00:50.019Z,35.71
2018-07-16T10:03:19.306Z,35.93
2018-07-16T10:05:48.598Z,36.33
2018-07-16T10:08:17.904Z,36.76
2018-07-16T10:10:47.125Z,36.51
2018-07-16T10:13:16.404Z,36.46
2018-07-16T10:15:45.687Z,36.53
2018-07-16T10:18:15.074Z,36.45
2018-07-16T10:20:44.550Z,37.02
2018-07-16T10:23:13.869Z,36.02
2018-07-16T10:25:43.484Z,36.29
2018-07-16T10:28:12.754Z,36.24
2018-07-16T10:31:02.152Z,36.31
2018-07-16T10:33:31.507Z,35.36
2018-07-16T10:36:00.801Z,35.69
2018-07-16T10:38:31.039Z,36.88
2018-07-16T10:44:00.923Z,35.56
2018-07-16T10:46:30.382Z,35.60
2018-07-16T10:49:00.463Z,36.54
2018-07-16T10:51:29.841Z,37.01
2018-07-16T10:53:59.150Z,37.12
2018-07-16T10:56:28.575Z,37.60
2018-07-16T10:58:58.009Z,36.69
2018-07-16T11:01:27.285Z,36.13
2018-07-16T11:03:56.895Z,36.66
2018-07-16T11:06:26.237Z,36.53
2018-07-16T11:08:55.699Z,36.90
2018-07-16T11:11:24.990Z,37.27
2018-07-16T11:13:54.327Z,37.63
2018-07-16T11:16:23.631Z,37.39
2018-07-16T11:18:52.954Z,37.49
2018-07-16T11:21:22.248Z,37.57
2018-07-16T11:23:51.521Z,37.85
2018-07-16T11:26:20.799Z,37.78
2018-07-16T11:28:50.112Z,38.08
2018-07-16T11:31:19.415Z,37.75
2018-07-16T11:33:48.736Z,37.84
2018-07-16T11:36:18.028Z,37.79
2018-07-16T11:38:47.302Z,38.04
2018-07-16T11:41:16.682Z,38.02
2018-07-16T11:43:46.312Z,37.92
2018-07-16T11:46:15.672Z,37.60
2018-07-16T11:48:45.047Z,37.81
2018-07-16T11:51:14.453Z,37.96
2018-07-16T11:53:43.751Z,38.13
2018-07-16T11:56:13.188Z,37.71
2018-07-16T11:58:42.678Z,36.91
2018-07-16T12:01:12.232Z,36.85
2018-07-16T12:03:41.888Z,36.98
2018-07-16T12:06:16.690Z,37.07
2018-07-16T12:08:45.983Z,37.01
2018-07-16T12:11:15.277Z,37.41
2018-07-16T12:13:44.632Z,37.63
2018-07-16T12:16:14.047Z,37.94
2018-07-16T12:18:43.466Z,38.10
2018-07-16T12:21:12.857Z,37.35
2018-07-16T12:23:42.410Z,37.72
2018-07-16T12:26:11.917Z,37.76
2018-07-16T12:28:41.299Z,37.73
2018-07-16T12:31:10.957Z,37.53
2018-07-16T12:33:40.327Z,37.47
2018-07-16T12:36:09.728Z,37.21
2018-07-16T12:38:41.972Z,37.49
2018-07-16T12:41:11.440Z,37.48
2018-07-16T12:43:40.911Z,37.71
2018-07-16T12:46:10.249Z,37.62
2018-07-16T12:48:39.586Z,37.62
2018-07-16T12:51:08.956Z,37.57
2018-07-16T12:53:38.239Z,37.39
2018-07-16T12:56:07.546Z,37.74
2018-07-16T12:58:36.811Z,37.65
2018-07-16T13:01:06.104Z,37.84
2018-07-16T13:03:35.422Z,37.79
2018-07-16T13:06:04.732Z,37.61
2018-07-16T13:08:34.025Z,37.41
2018-07-16T13:11:03.342Z,37.55
2018-07-16T13:13:32.645Z,37.48
2018-07-16T13:16:02.142Z,37.40
2018-07-16T13:18:31.358Z,37.01
2018-07-16T13:21:00.749Z,37.17
2018-07-16T13:23:30.099Z,36.98
2018-07-16T13:25:59.460Z,37.03
2018-07-16T13:28:28.798Z,36.95
2018-07-16T13:30:58.304Z,37.14
2018-07-16T13:33:27.610Z,36.35
2018-07-16T13:35:57.032Z,36.63
2018-07-16T13:38:26.337Z,36.77
2018-07-16T13:40:55.600Z,36.54
2018-07-16T13:43:24.931Z,35.82
2018-07-16T13:45:54.355Z,36.38
2018-07-16T13:48:23.669Z,36.96
2018-07-16T13:50:52.962Z,36.71
2018-07-16T13:53:22.325Z,36.44
2018-07-16T13:55:54.511Z,36.34
2018-07-16T13:58:23.914Z,36.44
2018-07-16T14:00:53.203Z,36.07
2018-07-16T14:03:22.510Z,35.76
2018-07-16T14:05:51.819Z,36.05
2018-07-16T14:08:21.186Z,35.66
2018-07-16T14:10:50.501Z,35.18
2018-07-16T14:13:19.812Z,35.58
2018-07-16T14:15:49.066Z,35.42
2018-07-16T14:18:18.322Z,35.21
2018-07-16T14:20:47.609Z,35.44
2018-07-16T14:23:16.878Z,35.33
2018-07-16T14:25:46.285Z,35.08
2018-07-16T14:28:15.570Z,35.49
2018-07-16T14:30:44.916Z,35.53
2018-07-16T14:33:14.224Z,35.29
2018-07-16T14:35:43.546Z,35.18
2018-07-16T14:38:16.647Z,35.22
2018-07-16T14:40:45.963Z,35.43
2018-07-16T14:43:15.249Z,34.99
2018-07-16T14:45:44.533Z,34.51
2018-07-16T14:48:13.925Z,34.38
2018-07-16T14:50:43.329Z,34.03
2018-07-16T14:53:12.668Z,33.77
2018-07-16T14:55:42.096Z,33.25
2018-07-16T14:58:11.429Z,33.19
2018-07-16T15:00:40.885Z,33.56
2018-07-16T15:03:10.477Z,33.60
2018-07-16T15:05:39.821Z,33.58
2018-07-16T15:08:09.136Z,33.90
2018-07-16T15:10:38.473Z,33.76
2018-07-16T15:13:07.997Z,33.62
2018-07-16T15:15:37.610Z,34.00
2018-07-16T15:18:07.169Z,33.66
2018-07-16T15:20:36.719Z,33.68
2018-07-16T15:23:05.905Z,33.06
2018-07-16T15:25:35.338Z,32.98
2018-07-16T15:28:04.714Z,32.81
2018-07-16T15:30:33.959Z,32.73
2018-07-16T15:33:03.291Z,32.46
2018-07-16T15:35:32.723Z,32.10
2018-07-16T15:38:02.130Z,31.90
2018-07-16T15:40:31.427Z,32.22
2018-07-16T15:43:00.808Z,32.36
2018-07-16T15:45:30.177Z,32.16
2018-07-16T15:47:59.502Z,32.29
2018-07-16T15:50:28.772Z,32.31
2018-07-16T15:52:58.105Z,32.35
2018-07-16T15:55:27.224Z,32.19
2018-07-16T15:57:56.517Z,32.11
2018-07-16T16:00:25.794Z,32.11
2018-07-16T16:02:55.124Z,32.26
2018-07-16T16:05:24.386Z,31.99
2018-07-16T16:07:53.700Z,32.15
2018-07-16T16:10:23.118Z,32.11
2018-07-16T16:12:52.128Z,31.74
2018-07-16T16:15:21.499Z,31.83
2018-07-16T16:17:50.790Z,31.80
2018-07-16T16:20:20.176Z,31.60
2018-07-16T16:22:49.477Z,31.47
2018-07-16T16:25:18.805Z,31.41
2018-07-16T16:27:48.120Z,31.32
2018-07-16T16:30:17.426Z,31.31
2018-07-16T16:32:47.056Z,31.22
2018-07-16T16:35:16.241Z,31.31
2018-07-16T16:37:45.569Z,31.29
2018-07-16T16:40:14.899Z,31.11
2018-07-16T16:42:44.328Z,31.09
2018-07-16T16:45:13.814Z,31.05
2018-07-16T16:47:43.170Z,31.03
2018-07-16T16:50:12.764Z,30.83
2018-07-16T16:52:42.289Z,30.69
2018-07-16T16:55:12.457Z,30.31
2018-07-16T16:57:41.782Z,30.33
2018-07-16T17:00:11.168Z,30.26
2018-07-16T17:02:40.599Z,30.19
2018-07-16T17:05:11.200Z,30.16
2018-07-16T17:07:41.684Z,30.18
2018-07-16T17:10:11.784Z,30.15
2018-07-16T17:12:41.177Z,30.12
2018-07-16T17:15:10.524Z,30.20
2018-07-16T17:17:39.800Z,30.14
2018-07-16T17:20:09.167Z,30.06
2018-07-16T17:22:38.463Z,30.01
2018-07-16T17:25:08.339Z,29.91
2018-07-16T17:27:37.685Z,29.74
2018-07-16T17:30:06.774Z,29.66
2018-07-16T17:32:36.055Z,29.57
2018-07-16T17:35:05.502Z,29.61
2018-07-16T17:37:34.765Z,29.61
2018-07-16T17:40:04.064Z,29.57
2018-07-16T17:42:33.529Z,29.60
2018-07-16T17:45:03.321Z,29.57
2018-07-16T17:47:32.466Z,29.60
2018-07-16T17:50:01.977Z,29.59
2018-07-16T17:52:58.462Z,29.55
2018-07-16T17:55:38.312Z,29.55
2018-07-16T17:58:07.799Z,29.50
2018-07-16T18:00:37.175Z,29.39
2018-07-16T18:03:06.546Z,29.47
2018-07-16T18:05:35.896Z,29.34
2018-07-16T18:08:05.560Z,29.18
2018-07-16T18:10:34.617Z,29.14
2018-07-16T18:13:04.065Z,29.04
2018-07-16T18:15:33.377Z,29.04
2018-07-16T18:18:02.451Z,28.96
2018-07-16T18:20:31.929Z,28.91
2018-07-16T18:23:01.251Z,29.05
2018-07-16T18:25:30.658Z,29.45
2018-07-16T18:28:00.077Z,29.28
2018-07-16T18:30:29.185Z,29.66
2018-07-16T18:32:58.500Z,30.49
2018-07-16T18:35:27.910Z,30.50
2018-07-16T18:37:57.338Z,30.46
2018-07-16T18:40:26.737Z,31.11
2018-07-16T18:42:55.962Z,31.28
2018-07-16T18:45:25.069Z,30.86
2018-07-16T18:47:54.502Z,31.06
2018-07-16T18:50:23.790Z,31.15
2018-07-16T18:52:53.210Z,30.76
2018-07-16T18:55:22.467Z,30.40
2018-07-16T18:57:51.781Z,29.97
2018-07-16T19:00:21.168Z,29.68
2018-07-16T19:02:50.528Z,29.57
2018-07-16T19:05:19.898Z,29.37
2018-07-16T19:07:49.940Z,29.33
2018-07-16T19:10:19.188Z,29.23
2018-07-16T19:12:48.458Z,28.97
2018-07-16T19:15:28.064Z,28.85
2018-07-16T19:17:58.164Z,28.69
2018-07-16T19:20:34.402Z,28.50
2018-07-16T19:23:03.791Z,28.37
2018-07-16T19:25:33.140Z,28.12
2018-07-16T19:28:02.524Z,28.00
2018-07-16T19:30:31.811Z,27.96
2018-07-16T19:33:01.207Z,27.79
2018-07-16T19:35:30.653Z,27.60
2018-07-16T19:37:59.940Z,27.42
2018-07-16T19:40:29.310Z,27.36
2018-07-16T19:42:58.681Z,27.19
2018-07-16T19:45:28.186Z,27.05
2018-07-16T19:47:57.496Z,26.93
2018-07-16T19:50:26.818Z,26.77
2018-07-16T19:52:56.131Z,26.67
2018-07-16T19:55:25.422Z,26.59
2018-07-16T19:57:54.839Z,26.50
2018-07-16T20:00:24.211Z,26.47
2018-07-16T20:02:53.741Z,26.34
2018-07-16T20:05:23.153Z,26.28
2018-07-16T20:07:52.636Z,26.18
2018-07-16T20:10:21.937Z,26.07
2018-07-16T20:12:51.243Z,26.00
2018-07-16T20:15:20.742Z,25.96
2018-07-16T20:17:50.159Z,25.94
2018-07-16T20:20:19.513Z,25.90
2018-07-16T20:22:48.856Z,25.82
2018-07-16T20:25:18.229Z,25.86
2018-07-16T20:27:47.561Z,25.88
2018-07-16T20:30:16.876Z,25.76
2018-07-16T20:32:46.388Z,25.71
2018-07-16T20:35:15.883Z,25.68
2018-07-16T20:37:45.306Z,25.75
2018-07-16T20:40:14.711Z,25.64
2018-07-16T20:42:44.066Z,25.57
2018-07-16T20:45:13.626Z,25.50
2018-07-16T20:47:43.095Z,25.46
2018-07-16T20:50:14.367Z,25.48
2018-07-16T20:52:43.741Z,25.39
2018-07-16T20:55:13.217Z,25.39
2018-07-16T20:57:42.728Z,25.30
2018-07-16T21:00:12.233Z,25.24
2018-07-16T21:02:41.652Z,25.21
2018-07-16T21:05:11.075Z,25.18
2018-07-16T21:07:40.556Z,25.11
2018-07-16T21:10:09.928Z,25.20
2018-07-16T21:12:39.324Z,25.16
2018-07-16T21:15:08.617Z,25.10
2018-07-16T21:17:38.051Z,24.97
2018-07-16T21:20:09.256Z,24.89
2018-07-16T21:22:38.547Z,24.75
2018-07-16T21:25:09.439Z,24.66
2018-07-16T21:27:38.823Z,24.57
2018-07-16T21:30:08.245Z,24.47
2018-07-16T21:32:37.740Z,24.40
2018-07-16T21:35:07.142Z,24.33
2018-07-16T21:37:36.460Z,24.29
2018-07-16T21:40:05.838Z,24.23
2018-07-16T21:42:35.168Z,24.19
2018-07-16T21:45:04.596Z,24.18
2018-07-16T21:47:33.722Z,24.12
2018-07-16T21:50:03.129Z,24.10
2018-07-16T21:52:32.442Z,24.07
2018-07-16T21:55:01.783Z,24.08
2018-07-16T21:57:31.343Z,24.01
2018-07-16T22:00:00.733Z,23.97
2018-07-16T22:02:30.225Z,23.96
2018-07-16T22:04:59.752Z,23.91
2018-07-16T22:07:30.337Z,23.84
2018-07-16T22:10:00.011Z,23.80
2018-07-16T22:12:29.200Z,23.79
2018-07-16T22:14:58.227Z,23.74
2018-07-16T22:17:27.486Z,23.81
2018-07-16T22:19:56.860Z,23.83
2018-07-16T22:22:26.289Z,23.78
2018-07-16T22:24:55.684Z,23.75
2018-07-16T22:27:24.909Z,23.77
2018-07-16T22:29:54.232Z,23.70
2018-07-16T22:32:23.641Z,23.62
2018-07-16T22:34:53.510Z,23.54
2018-07-16T22:37:22.924Z,23.48
2018-07-16T22:39:52.242Z,23.36
2018-07-16T22:42:21.518Z,23.28
2018-07-16T22:44:50.728Z,23.24
2018-07-16T22:47:24.037Z,23.16
2018-07-16T22:49:53.325Z,23.14
2018-07-16T22:52:22.677Z,23.09
2018-07-16T22:54:52.063Z,23.06
2018-07-16T22:57:21.340Z,23.04
2018-07-16T22:59:50.661Z,23.05
2018-07-16T23:02:20.015Z,23.05
2018-07-16T23:04:49.338Z,23.04
2018-07-16T23:07:18.613Z,23.02
2018-07-16T23:09:48.094Z,23.04
2018-07-16T23:12:17.491Z,23.05
2018-07-16T23:14:46.877Z,22.99
2018-07-16T23:17:16.588Z,22.97
2018-07-16T23:19:46.050Z,22.91
2018-07-16T23:22:15.436Z,22.88
2018-07-16T23:24:45.091Z,22.84
2018-07-16T23:27:14.281Z,22.81
2018-07-16T23:29:44.605Z,22.82
2018-07-16T23:32:14.197Z,22.80
2018-07-16T23:34:43.635Z,22.97
2018-07-16T23:37:13.000Z,22.97
2018-07-16T23:39:42.492Z,22.96
2018-07-16T23:42:11.858Z,23.14
2018-07-16T23:44:41.298Z,23.05
2018-07-16T23:47:10.683Z,22.95
2018-07-16T23:49:40.007Z,22.96
2018-07-16T23:52:09.285Z,22.89
2018-07-16T23:54:38.602Z,22.81
2018-07-16T23:57:07.914Z,22.78
2018-07-16T23:59:37.197Z,22.66
